METAR Formatted Surface Weather Observation
Issued by NWS Missoula, MT

Home | Current Version | Previous Version | Text Only | Print | Product List | Glossary On
Versions: 1
000
SAUS45 KMSO 232055
MTRMSO
METAR KMSO 232053Z 00000KT 10SM OVC065 02/M05 A3027 RMK AO2 SLP281
T00171050 58025



USA.gov is the U.S. government's official web portal to all federal, state and local government web resources and services.